Time;durP1;ratioP1;P1;durP2;ratioP2;P2;SDS_P1;SDS_P2;PMS_P1;PMS_P2;Temp;Humidity;BMP_temperature;BMP_pressure;BME280_temperature;BME280_humidity;BME280_pressure;Samples;Min_cycle;Max_cycle;Signal;HPM_P1;HPM_P2
2021/03/26 00:01:30;;;;;;;;;;;;;;;16.21;34.76;101584.44;4825391;29;20035;-76
2021/03/26 00:04:01;;;;;;;;;;;;;;;16.19;34.89;101583.66;4825207;29;20384;-76
2021/03/26 00:06:32;;;;;;;;;;;;;;;16.14;34.91;101574.06;4838919;29;20263;-76
2021/03/26 00:09:02;;;;;;;;;;;;;;;16.07;34.97;101568.97;4825557;29;20405;-76
2021/03/26 00:11:31;;;;;;;;;;;;;;;16.09;35.02;101579.56;4825595;29;20455;-76
2021/03/26 00:14:01;;;;;;;;;;;;;;;16.03;34.83;101575.31;4825389;29;20305;-76
2021/03/26 00:16:32;;;;;;;;;;;;;;;16.00;34.90;101588.78;4824867;29;19937;-76
2021/03/26 00:19:02;;;;;;;;;;;;;;;15.97;34.92;101585.34;4824787;29;20279;-76
2021/03/26 00:21:32;;;;;;;;;;;;;;;15.93;35.07;101574.81;4824779;29;20374;-76
2021/03/26 00:24:01;;;;;;;;;;;;;;;15.89;34.93;101582.97;4824552;29;20395;-76
2021/03/26 00:26:30;;;;;;;;;;;;;;;15.84;35.10;101583.16;4824620;29;19937;-76
2021/03/26 00:29:18;;;;;;;;;;;;;;;15.82;35.03;101582.31;4825286;29;19993;-76
2021/03/26 00:31:48;;;;;;;;;;;;;;;15.80;34.87;101577.94;4824944;29;20243;-77
2021/03/26 00:34:19;;;;;;;;;;;;;;;15.77;34.95;101579.78;4824575;29;19929;-76
2021/03/26 00:36:49;;;;;;;;;;;;;;;15.74;34.92;101579.03;4824641;29;20317;-76
2021/03/26 00:39:18;;;;;;;;;;;;;;;15.68;35.26;101577.47;4824438;29;19929;-76
2021/03/26 00:41:48;;;;;;;;;;;;;;;15.65;35.14;101574.88;4824156;29;20271;-76
2021/03/26 00:44:18;;;;;;;;;;;;;;;15.60;35.01;101567.06;4824761;29;20473;-76
2021/03/26 00:46:50;;;;;;;;;;;;;;;15.58;35.15;101563.56;4824791;29;20354;-76
2021/03/26 00:49:19;;;;;;;;;;;;;;;15.56;35.33;101565.44;4824094;29;19928;-76
2021/03/26 00:51:49;;;;;;;;;;;;;;;15.55;35.27;101560.16;4824542;29;20386;-76
2021/03/26 00:54:19;;;;;;;;;;;;;;;15.52;35.42;101560.25;4824304;29;20355;-76
2021/03/26 00:56:49;;;;;;;;;;;;;;;15.49;35.29;101557.69;4837981;29;19935;-76
2021/03/26 00:59:27;;;;;;;;;;;;;;;15.48;35.13;101554.13;4824539;29;20336;-76
2021/03/26 01:01:57;;;;;;;;;;;;;;;15.45;35.02;101562.25;4824085;29;20335;-76
2021/03/26 01:04:27;;;;;;;;;;;;;;;15.43;35.14;101556.09;4824063;29;19935;-76
2021/03/26 01:06:57;;;;;;;;;;;;;;;15.40;35.42;101553.56;4823522;29;20386;-76
2021/03/26 01:09:27;;;;;;;;;;;;;;;15.38;35.14;101552.75;4824083;29;20383;-76
2021/03/26 01:11:56;;;;;;;;;;;;;;;15.37;35.54;101551.84;4824355;29;20394;-76
2021/03/26 01:14:27;;;;;;;;;;;;;;;15.37;35.26;101553.66;4823881;29;20315;-76
2021/03/26 01:17:02;;;;;;;;;;;;;;;15.33;35.52;101552.91;4837458;29;20387;-76
2021/03/26 01:20:33;;;;;;;;;;;;;;;15.32;35.46;101537.81;4812602;29;19936;-76
2021/03/26 01:23:28;;;;;;;;;;;;;;;15.25;35.30;101537.16;4824090;29;20428;-76
2021/03/26 01:26:01;;;;;;;;;;;;;;;15.22;35.70;101534.63;4824414;29;20436;-76
2021/03/26 01:28:48;;;;;;;;;;;;;;;15.20;35.49;101539.13;4823916;29;19935;-76
2021/03/26 01:31:39;;;;;;;;;;;;;;;15.18;35.73;101545.41;4823375;29;19928;-76
2021/03/26 01:34:10;;;;;;;;;;;;;;;15.15;35.65;101535.72;4823860;29;20398;-76
2021/03/26 01:36:47;;;;;;;;;;;;;;;15.13;35.59;101534.03;4824133;29;20383;-76
2021/03/26 01:39:18;;;;;;;;;;;;;;;15.12;35.74;101537.66;4823553;29;20365;-76
2021/03/26 01:41:54;;;;;;;;;;;;;;;15.08;35.63;101534.22;4823607;29;20531;-76
2021/03/26 01:44:26;;;;;;;;;;;;;;;15.06;35.48;101528.94;4822318;29;19968;-76
2021/03/26 01:50:24;;;;;;;;;;;;;;;15.02;35.59;101529.94;4824114;29;20395;-76
2021/03/26 01:52:54;;;;;;;;;;;;;;;15.02;35.56;101532.59;4823694;29;20379;-76
2021/03/26 01:55:27;;;;;;;;;;;;;;;14.99;35.41;101527.38;4823646;29;19985;-76
2021/03/26 02:01:52;;;;;;;;;;;;;;;14.94;35.87;101530.22;4823680;29;20065;-76
2021/03/26 02:04:25;;;;;;;;;;;;;;;14.92;35.70;101518.72;4824074;29;19929;-76
2021/03/26 02:07:01;;;;;;;;;;;;;;;14.91;35.93;101518.78;4823597;29;20444;-76
2021/03/26 02:13:58;;;;;;;;;;;;;;;14.84;35.68;101506.59;4749433;30;19971;-76
2021/03/26 02:16:32;;;;;;;;;;;;;;;14.82;36.15;101501.31;4749479;30;20302;-76
2021/03/26 02:23:13;;;;;;;;;;;;;;;14.76;36.20;101513.03;4737117;29;20281;-76
2021/03/26 02:26:03;;;;;;;;;;;;;;;14.71;36.09;101501.66;4720828;30;20472;-76
2021/03/26 02:32:34;;;;;;;;;;;;;;;14.67;36.02;101499.16;4806824;29;20315;-76
2021/03/26 02:35:23;;;;;;;;;;;;;;;14.64;36.17;101501.91;4791570;29;20379;-76
2021/03/26 02:38:04;;;;;;;;;;;;;;;14.63;36.32;101498.38;4826927;29;20403;-76
2021/03/26 02:40:38;;;;;;;;;;;;;;;14.60;36.36;101499.34;4826411;29;19929;-76
2021/03/26 02:43:14;;;;;;;;;;;;;;;14.58;36.33;101494.97;4840481;29;20039;-76
2021/03/26 02:45:49;;;;;;;;;;;;;;;14.55;36.33;101489.72;4826015;29;20295;-76
2021/03/26 02:48:24;;;;;;;;;;;;;;;14.51;36.36;101496.97;4826889;29;20391;-76
2021/03/26 02:51:00;;;;;;;;;;;;;;;14.50;36.45;101489.91;4826512;29;19967;-76
2021/03/26 02:57:46;;;;;;;;;;;;;;;14.45;36.58;101491.84;4826131;29;19977;-76
2021/03/26 03:00:24;;;;;;;;;;;;;;;14.43;36.63;101485.66;4826404;29;20463;-76
2021/03/26 03:02:56;;;;;;;;;;;;;;;14.40;36.64;101469.81;4826232;29;20374;-76
2021/03/26 03:05:29;;;;;;;;;;;;;;;14.39;36.96;101468.06;4826528;29;20391;-76
2021/03/26 03:12:00;;;;;;;;;;;;;;;14.34;37.10;101465.56;4826064;29;19944;-76
2021/03/26 03:14:34;;;;;;;;;;;;;;;14.32;36.97;101459.41;4825257;29;20378;-76
2021/03/26 03:28:01;;;;;;;;;;;;;;;14.24;37.00;101451.66;4805730;29;19933;-76
2021/03/26 03:30:36;;;;;;;;;;;;;;;14.22;37.22;101460.59;4825463;29;20371;-76
2021/03/26 03:33:09;;;;;;;;;;;;;;;14.19;37.22;101460.72;4825696;29;20387;-76
2021/03/26 03:35:56;;;;;;;;;;;;;;;14.16;37.36;101450.19;4825752;29;20395;-76
2021/03/26 03:42:35;;;;;;;;;;;;;;;14.13;37.20;101448.47;4825627;29;19950;-76
2021/03/26 03:45:13;;;;;;;;;;;;;;;14.11;37.35;101452.97;4825538;29;20367;-76
2021/03/26 03:47:49;;;;;;;;;;;;;;;14.10;37.43;101453.88;4825672;29;20311;-76
2021/03/26 03:50:24;;;;;;;;;;;;;;;14.09;37.30;101461.00;4825313;29;20356;-76
2021/03/26 03:56:57;;;;;;;;;;;;;;;14.02;37.53;101447.94;4825263;29;19989;-76
2021/03/26 03:59:32;;;;;;;;;;;;;;;14.00;37.82;101449.75;4825384;29;20363;-76
2021/03/26 04:13:26;;;;;;;;;;;;;;;13.90;37.71;101442.06;4824913;29;20345;-76
2021/03/26 04:15:59;;;;;;;;;;;;;;;13.88;37.71;101441.25;4825239;29;20471;-76
2021/03/26 04:22:40;;;;;;;;;;;;;;;13.81;38.19;101445.00;4825466;29;19932;-76
2021/03/26 04:25:31;;;;;;;;;;;;;;;13.78;37.95;101453.94;4825014;29;19967;-76
2021/03/26 04:28:33;;;;;;;;;;;;;;;13.74;38.42;101449.63;4806664;29;20082;-76
2021/03/26 04:31:24;;;;;;;;;;;;;;;13.72;38.22;101461.22;4824808;29;20047;-75
2021/03/26 04:37:51;;;;;;;;;;;;;;;13.62;38.58;101465.94;4824867;29;19935;-76
2021/03/26 04:40:26;;;;;;;;;;;;;;;13.60;38.43;101460.69;4824749;29;20395;-76
2021/03/26 04:43:01;;;;;;;;;;;;;;;13.56;38.43;101464.31;4838195;29;19968;-76
2021/03/26 04:45:35;;;;;;;;;;;;;;;13.54;38.56;101459.94;4824633;29;20395;-76
2021/03/26 04:48:26;;;;;;;;;;;;;;;13.54;38.68;101462.63;4823962;29;20409;-76
2021/03/26 04:51:13;;;;;;;;;;;;;;;13.50;38.60;101463.63;4824637;29;20375;-76
2021/03/26 04:54:04;;;;;;;;;;;;;;;13.48;38.62;101463.66;4824467;29;19936;-76
2021/03/26 04:56:41;;;;;;;;;;;;;;;13.47;38.67;101461.06;4838797;29;20389;-76
2021/03/26 04:59:31;;;;;;;;;;;;;;;13.44;38.58;101452.25;4824527;29;20393;-76
2021/03/26 05:13:13;;;;;;;;;;;;;;;13.40;38.96;101452.38;4825101;29;19932;-76
2021/03/26 05:15:49;;;;;;;;;;;;;;;13.41;38.76;101456.78;4824842;29;19936;-76
2021/03/26 05:18:28;;;;;;;;;;;;;;;13.40;38.75;101466.53;4824055;29;20375;-76
2021/03/26 05:21:06;;;;;;;;;;;;;;;13.41;38.83;101459.44;4838866;29;20354;-76
2021/03/26 05:23:56;;;;;;;;;;;;;;;13.41;38.82;101459.44;4823889;29;19935;-76
2021/03/26 05:26:44;;;;;;;;;;;;;;;13.40;38.82;101458.56;4823761;29;19935;-76
2021/03/26 05:29:27;;;;;;;;;;;;;;;13.41;38.76;101464.78;4823951;29;19933;-76
2021/03/26 05:32:03;;;;;;;;;;;;;;;13.43;38.79;101465.59;4823908;29;20382;-76
2021/03/26 05:35:35;;;;;;;;;;;;;;;13.47;38.63;101461.06;4768204;30;19936;-76
2021/03/26 05:38:54;;;;;;;;;;;;;;;13.47;38.62;101475.22;4767981;30;19937;-76
2021/03/26 05:42:00;;;;;;;;;;;;;;;13.47;38.75;101472.53;4767747;30;19937;-76
2021/03/26 05:48:51;;;;;;;;;;;;;;;13.59;38.27;101463.34;4767822;30;19989;-76
2021/03/26 05:51:37;;;;;;;;;;;;;;;13.63;38.33;101470.31;4767692;30;20341;-76
2021/03/26 05:54:17;;;;;;;;;;;;;;;13.68;38.49;101468.41;4767072;30;20360;-76
2021/03/26 06:00:29;;;;;;;;;;;;;;;13.71;38.00;101457.69;4767397;30;20028;-76
2021/03/26 06:03:26;;;;;;;;;;;;;;;13.72;38.10;101467.44;4767449;30;19930;-76
2021/03/26 06:06:34;;;;;;;;;;;;;;;13.72;38.36;101462.09;4767915;30;19937;-76
2021/03/26 06:09:37;;;;;;;;;;;;;;;13.75;38.20;101469.13;4767155;30;19930;-76
2021/03/26 06:20:04;;;;;;;;;;;;;;;14.05;37.66;101477.09;4823644;29;19968;-76
2021/03/26 06:23:23;;;;;;;;;;;;;;;14.15;37.12;101473.22;4811660;29;19929;-75
2021/03/26 06:26:25;;;;;;;;;;;;;;;14.29;36.94;101475.47;4821762;29;20366;-77
2021/03/26 06:29:03;;;;;;;;;;;;;;;14.34;36.99;101473.53;4823384;29;20383;-77
2021/03/26 06:31:50;;;;;;;;;;;;;;;14.41;37.07;101479.53;4823498;29;20399;-77
2021/03/26 06:35:00;;;;;;;;;;;;;;;14.59;36.37;101467.41;4810089;29;19944;-77
2021/03/26 06:37:53;;;;;;;;;;;;;;;14.81;35.95;101477.41;4825171;29;20359;-79
2021/03/26 06:40:43;;;;;;;;;;;;;;;14.74;36.07;101471.41;4822966;29;20340;-80
2021/03/26 06:43:23;;;;;;;;;;;;;;;14.60;36.44;101470.03;4823174;29;19982;-76
2021/03/26 06:46:18;;;;;;;;;;;;;;;14.74;36.23;101474.94;4823253;29;19954;-76
2021/03/26 06:48:53;;;;;;;;;;;;;;;15.09;35.50;101474.66;4823404;29;19928;-76
2021/03/26 06:51:44;;;;;;;;;;;;;;;15.15;35.72;101485.09;4823380;29;20401;-79
2021/03/26 06:58:04;;;;;;;;;;;;;;;15.51;35.27;101481.16;4822992;29;19932;-79
2021/03/26 07:00:44;;;;;;;;;;;;;;;15.50;35.23;101479.47;4823257;29;20027;-76
2021/03/26 07:03:32;;;;;;;;;;;;;;;15.56;35.26;101482.75;4822813;29;20414;-78
2021/03/26 07:06:13;;;;;;;;;;;;;;;15.84;34.71;101475.56;4825810;29;19952;-76
2021/03/26 07:08:55;;;;;;;;;;;;;;;16.22;34.23;101476.75;4825697;29;19960;-76
2021/03/26 07:11:34;;;;;;;;;;;;;;;16.71;36.54;101470.34;4826379;29;20423;-78
2021/03/26 07:14:11;;;;;;;;;;;;;;;17.92;44.78;101488.25;4825923;29;20318;-78
2021/03/26 07:16:53;;;;;;;;;;;;;;;18.51;42.59;101476.56;4826261;29;20359;-78
2021/03/26 07:19:30;;;;;;;;;;;;;;;18.78;41.67;101476.13;4825696;29;20408;-77
2021/03/26 07:22:06;;;;;;;;;;;;;;;19.32;40.41;101478.75;4826345;29;20427;-76
2021/03/26 07:25:01;;;;;;;;;;;;;;;19.54;40.23;101471.31;4825948;29;19932;-78
2021/03/26 07:27:50;;;;;;;;;;;;;;;19.35;41.80;101475.94;4816894;29;19937;-77
2021/03/26 07:30:35;;;;;;;;;;;;;;;19.31;41.35;101472.53;4825772;29;20386;-78
2021/03/26 07:33:22;;;;;;;;;;;;;;;19.92;39.61;101474.69;4825773;29;20362;-77
2021/03/26 07:36:10;;;;;;;;;;;;;;;20.21;39.07;101478.44;4825923;29;19954;-77
2021/03/26 07:38:59;;;;;;;;;;;;;;;20.04;38.69;101479.38;4826022;29;19978;-77
2021/03/26 07:41:46;;;;;;;;;;;;;;;20.27;37.47;101477.25;4823094;29;20344;-77
2021/03/26 07:44:33;;;;;;;;;;;;;;;20.24;37.72;101478.28;4826645;29;20394;-77
2021/03/26 07:47:16;;;;;;;;;;;;;;;20.45;36.49;101480.66;4825937;29;20398;-77
2021/03/26 07:50:13;;;;;;;;;;;;;;;20.69;36.35;101481.09;4840043;29;19954;-77
2021/03/26 07:52:46;;;;;;;;;;;;;;;21.14;35.26;101484.69;4804969;29;19929;-78
2021/03/26 07:55:21;;;;;;;;;;;;;;;21.57;35.25;101486.63;4825695;29;19964;-76
2021/03/26 07:58:11;;;;;;;;;;;;;;;20.10;34.09;101487.09;4824966;29;19935;-70
2021/03/26 08:00:48;;;;;;;;;;;;;;;19.00;35.45;101483.97;4825235;29;19963;-69
2021/03/26 08:03:35;;;;;;;;;;;;;;;18.73;35.31;101477.22;4825289;29;20282;-69
2021/03/26 08:06:14;;;;;;;;;;;;;;;20.43;34.69;101486.13;4825478;29;20369;-71
2021/03/26 08:08:52;;;;;;;;;;;;;;;21.55;32.36;101492.13;4824221;29;19929;-70
2021/03/26 08:11:33;;;;;;;;;;;;;;;21.70;32.03;101490.28;4825375;29;20398;-70
2021/03/26 08:14:15;;;;;;;;;;;;;;;22.37;30.71;101486.09;4824785;29;20298;-70
2021/03/26 08:16:54;;;;;;;;;;;;;;;22.77;29.88;101479.88;4824870;29;20032;-70
2021/03/26 08:19:31;;;;;;;;;;;;;;;22.95;29.49;101485.84;4825240;29;20387;-71
2021/03/26 08:22:04;;;;;;;;;;;;;;;23.13;28.72;101483.72;4825388;29;20302;-71
2021/03/26 08:24:47;;;;;;;;;;;;;;;22.90;29.10;101488.84;4825150;29;19935;-71
2021/03/26 08:27:22;;;;;;;;;;;;;;;23.33;28.39;101493.16;4824458;29;19981;-71
2021/03/26 08:30:00;;;;;;;;;;;;;;;23.11;28.49;101494.59;4824985;29;19933;-70
2021/03/26 08:32:50;;;;;;;;;;;;;;;22.98;28.96;101502.69;4825226;29;19987;-71
2021/03/26 08:35:37;;;;;;;;;;;;;;;23.10;28.83;101501.00;4825132;29;20334;-71
2021/03/26 08:38:16;;;;;;;;;;;;;;;23.17;28.66;101502.31;4824963;29;20374;-70
2021/03/26 08:40:51;;;;;;;;;;;;;;;23.49;27.10;101501.91;4824826;29;20395;-67
2021/03/26 08:43:22;;;;;;;;;;;;;;;22.84;26.48;101500.06;4823849;29;19938;-73
2021/03/26 08:45:56;;;;;;;;;;;;;;;22.31;26.72;101510.69;4824951;29;19929;-73
2021/03/26 08:48:32;;;;;;;;;;;;;;;22.23;26.56;101503.09;4824946;29;20335;-75
2021/03/26 08:51:12;;;;;;;;;;;;;;;22.08;26.35;101506.81;4824924;29;19936;-74
2021/03/26 08:53:48;;;;;;;;;;;;;;;22.51;25.59;101499.53;4824473;29;20395;-74
2021/03/26 08:56:24;;;;;;;;;;;;;;;22.49;26.05;101493.34;4824297;29;19928;-74
2021/03/26 08:59:14;;;;;;;;;;;;;;;23.01;25.48;101493.53;4823901;29;20395;-73
2021/03/26 09:02:15;;;;;;;;;;;;;;;;;;;;;
2021/03/26 09:05:00;;;;;;;;;;;;;;;23.15;24.14;101501.56;4823865;29;20323;-73
2021/03/26 09:07:39;;;;;;;;;;;;;;;22.99;24.21;101506.25;4824314;29;19928;-73
2021/03/26 09:10:18;;;;;;;;;;;;;;;23.16;24.28;101500.59;4824145;29;20387;-73
2021/03/26 09:12:55;;;;;;;;;;;;;;;23.33;24.39;101501.25;4823994;29;19932;-73
2021/03/26 09:15:33;;;;;;;;;;;;;;;22.95;24.57;101502.03;4824427;29;20398;-73
2021/03/26 09:18:08;;;;;;;;;;;;;;;22.63;24.95;101514.03;4824220;29;19936;-73
2021/03/26 09:20:41;;;;;;;;;;;;;;;23.15;24.00;101506.09;4824340;29;19932;-73
2021/03/26 09:23:24;;;;;;;;;;;;;;;23.91;22.06;101507.09;4824021;29;20440;-73
2021/03/26 09:25:56;;;;;;;;;;;;;;;24.14;20.72;101508.13;4824096;29;20313;-73
2021/03/26 09:28:29;;;;;;;;;;;;;;;24.51;19.16;101513.53;4823199;29;20024;-73
2021/03/26 09:31:02;;;;;;;;;;;;;;;24.87;18.38;101505.47;4824211;29;19933;-73
2021/03/26 09:33:34;;;;;;;;;;;;;;;24.74;18.25;101510.09;4824225;29;19928;-73
2021/03/26 09:36:20;;;;;;;;;;;;;;;25.41;18.08;101514.03;4824105;29;19933;-73
2021/03/26 09:39:00;;;;;;;;;;;;;;;25.16;18.80;101513.22;4823315;29;20398;-73
2021/03/26 09:41:33;;;;;;;;;;;;;;;25.45;18.82;101511.00;4823785;29;19929;-73
2021/03/26 09:44:08;;;;;;;;;;;;;;;25.97;18.51;101513.22;4823470;29;20043;-74
2021/03/26 09:46:41;;;;;;;;;;;;;;;25.98;18.26;101506.81;4823121;29;20302;-73
2021/03/26 09:49:17;;;;;;;;;;;;;;;26.04;18.17;101513.63;4823855;29;20390;-73
2021/03/26 09:51:48;;;;;;;;;;;;;;;26.29;18.19;101502.50;4823359;29;19936;-73
2021/03/26 09:54:38;;;;;;;;;;;;;;;26.68;17.55;101507.44;4823263;29;19939;-73
2021/03/26 09:57:37;;;;;;;;;;;;;;;26.35;18.02;101506.53;4824046;29;20383;-73
2021/03/26 10:00:20;;;;;;;;;;;;;;;26.52;17.92;101508.69;4823944;29;20032;-73
2021/03/26 10:02:59;;;;;;;;;;;;;;;26.83;17.61;101495.31;4823798;29;20390;-73
2021/03/26 10:05:35;;;;;;;;;;;;;;;25.83;18.94;101495.34;4823310;29;19948;-74
2021/03/26 10:08:34;;;;;;;;;;;;;;;25.77;18.91;101507.56;4823719;29;19964;-73
2021/03/26 10:11:06;;;;;;;;;;;;;;;26.45;18.16;101476.78;4824047;29;20053;-73
2021/03/26 10:13:44;;;;;;;;;;;;;;;27.05;17.39;101498.03;4823475;29;20385;-73
2021/03/26 10:16:16;;;;;;;;;;;;;;;26.90;17.67;101486.66;4823563;29;19936;-73
2021/03/26 10:18:49;;;;;;;;;;;;;;;27.10;17.58;101485.78;4822909;29;20447;-73
2021/03/26 10:21:22;;;;;;;;;;;;;;;27.09;17.56;101492.19;4823251;29;20028;-74
2021/03/26 10:24:00;;;;;;;;;;;;;;;27.47;17.63;101492.63;4823474;29;20383;-73
2021/03/26 10:26:34;;;;;;;;;;;;;;;26.56;18.64;101494.91;4823698;29;19941;-73
2021/03/26 10:29:18;;;;;;;;;;;;;;;26.96;18.32;101487.00;4823281;29;19963;-73
2021/03/26 10:31:50;;;;;;;;;;;;;;;26.90;18.57;101497.50;4822635;29;19928;-73
2021/03/26 10:34:31;;;;;;;;;;;;;;;26.63;19.04;101496.97;4823057;29;19929;-73
2021/03/26 10:37:19;;;;;;;;;;;;;;;26.55;19.25;101482.31;4823715;29;20255;-73
2021/03/26 10:39:58;;;;;;;;;;;;;;;26.02;19.65;101481.19;4823816;29;20050;-71
2021/03/26 10:42:40;;;;;;;;;;;;;;;22.89;23.87;101484.44;4826838;29;19929;-67
2021/03/26 10:45:17;;;;;;;;;;;;;;;23.10;24.21;101481.22;4826280;29;20291;-67
2021/03/26 10:47:52;;;;;;;;;;;;;;;24.80;21.89;101485.31;4826256;29;19950;-68
2021/03/26 10:50:29;;;;;;;;;;;;;;;24.81;22.21;101468.09;4826439;29;20378;-67
2021/03/26 10:53:03;;;;;;;;;;;;;;;25.21;21.75;101477.69;4826708;29;20367;-69
2021/03/26 10:55:41;;;;;;;;;;;;;;;25.43;21.68;101475.03;4826453;29;20442;-67
2021/03/26 10:58:18;;;;;;;;;;;;;;;25.69;21.04;101467.53;4825789;29;20152;-68
2021/03/26 11:00:49;;;;;;;;;;;;;;;25.90;21.08;101466.78;4826156;29;20051;-68
2021/03/26 11:03:22;;;;;;;;;;;;;;;25.87;21.08;101458.88;4826071;29;19933;-67
2021/03/26 11:05:55;;;;;;;;;;;;;;;26.06;20.66;101457.44;4824858;29;20386;-67
2021/03/26 11:08:38;;;;;;;;;;;;;;;26.19;20.54;101455.44;4826436;29;20382;-67
2021/03/26 11:11:17;;;;;;;;;;;;;;;26.63;20.02;101450.84;4826365;29;19932;-67
2021/03/26 11:14:06;;;;;;;;;;;;;;;26.51;19.79;101439.19;4825403;29;20450;-68
2021/03/26 11:16:39;;;;;;;;;;;;;;;26.82;19.87;101443.88;4825818;29;20031;-67
2021/03/26 11:19:13;;;;;;;;;;;;;;;26.73;19.63;101459.09;4825655;29;19933;-68
2021/03/26 11:21:44;;;;;;;;;;;;;;;26.70;19.61;101445.75;4825915;29;20367;-70
2021/03/26 11:24:15;;;;;;;;;;;;;;;26.53;19.62;101444.47;4826001;29;20354;-70
2021/03/26 11:26:48;;;;;;;;;;;;;;;25.83;19.83;101446.56;4826049;29;19935;-73
2021/03/26 11:29:20;;;;;;;;;;;;;;;26.10;19.37;101448.06;4825087;29;19929;-69
2021/03/26 11:31:53;;;;;;;;;;;;;;;25.46;20.41;101446.84;4825613;29;20383;-69
2021/03/26 11:34:30;;;;;;;;;;;;;;;26.26;19.42;101434.09;4825616;29;20299;-69
2021/03/26 11:37:07;;;;;;;;;;;;;;;27.02;19.24;101433.16;4825853;29;19928;-69
2021/03/26 11:39:41;;;;;;;;;;;;;;;25.96;20.05;101436.47;4825713;29;20403;-68
2021/03/26 11:42:26;;;;;;;;;;;;;;;26.88;18.42;101435.19;4824812;29;20280;-74
2021/03/26 11:45:00;;;;;;;;;;;;;;;27.38;17.96;101429.09;4824055;29;20023;-74
2021/03/26 11:47:34;;;;;;;;;;;;;;;27.60;18.00;101436.19;4825972;29;19929;-73
2021/03/26 11:50:13;;;;;;;;;;;;;;;27.63;17.58;101427.78;4825595;29;20417;-73
2021/03/26 11:52:46;;;;;;;;;;;;;;;27.75;17.23;101433.09;4825019;29;20454;-73
2021/03/26 11:55:20;;;;;;;;;;;;;;;28.43;16.81;101421.50;4825424;29;19936;-73
2021/03/26 11:57:55;;;;;;;;;;;;;;;28.11;17.00;101431.66;4824813;29;19929;-74
2021/03/26 12:00:27;;;;;;;;;;;;;;;28.22;17.08;101421.66;4825433;29;19936;-74
2021/03/26 12:03:01;;;;;;;;;;;;;;;28.96;16.34;101426.53;4825579;29;20399;-74
2021/03/26 12:05:59;;;;;;;;;;;;;;;28.78;16.65;101422.81;4825289;29;20375;-74
2021/03/26 12:08:32;;;;;;;;;;;;;;;28.91;16.35;101420.66;4825437;29;20412;-76
2021/03/26 12:11:05;;;;;;;;;;;;;;;28.97;16.41;101414.63;4824988;29;20283;-74
2021/03/26 12:13:39;;;;;;;;;;;;;;;29.05;16.35;101418.47;4824934;29;20385;-74
2021/03/26 12:16:15;;;;;;;;;;;;;;;29.30;16.02;101423.31;4825307;29;19929;-74
2021/03/26 12:18:48;;;;;;;;;;;;;;;29.39;16.06;101412.50;4824911;29;20031;-74
2021/03/26 12:21:26;;;;;;;;;;;;;;;29.28;16.11;101411.69;4825544;29;19929;-74
2021/03/26 12:23:59;;;;;;;;;;;;;;;28.79;16.68;101408.22;4825103;29;19986;-74
2021/03/26 12:26:31;;;;;;;;;;;;;;;27.72;17.43;101411.63;4824740;29;19929;-73
2021/03/26 12:29:14;;;;;;;;;;;;;;;28.92;16.33;101407.88;4824920;29;19936;-72
2021/03/26 12:31:48;;;;;;;;;;;;;;;28.19;17.39;101400.19;4824268;29;20410;-74
2021/03/26 12:34:33;;;;;;;;;;;;;;;28.88;16.27;101407.34;4825414;29;19978;-73
2021/03/26 12:37:08;;;;;;;;;;;;;;;28.45;16.77;101403.19;4824015;29;19928;-73
2021/03/26 12:39:41;;;;;;;;;;;;;;;28.14;16.97;101395.16;4838609;29;20322;-73
2021/03/26 12:42:15;;;;;;;;;;;;;;;26.05;19.11;101404.22;4823499;29;20020;-75
2021/03/26 12:44:45;;;;;;;;;;;;;;;27.43;18.10;101385.22;4825040;29;19940;-68
2021/03/26 12:47:18;;;;;;;;;;;;;;;28.22;17.40;101389.00;4824647;29;20356;-68
2021/03/26 12:50:03;;;;;;;;;;;;;;;27.93;17.90;101393.38;4824843;29;19937;-69
2021/03/26 12:52:57;;;;;;;;;;;;;;;27.99;17.53;101391.97;4823339;29;20005;-70
2021/03/26 12:55:49;;;;;;;;;;;;;;;28.68;16.83;101395.59;4824354;29;20301;-69
2021/03/26 12:58:29;;;;;;;;;;;;;;;26.51;18.83;101393.06;4824284;29;20359;-70
2021/03/26 13:01:05;;;;;;;;;;;;;;;24.44;21.49;101400.53;4824860;29;20236;-68
2021/03/26 13:03:37;;;;;;;;;;;;;;;23.19;24.21;101405.94;4824368;29;19929;-70
2021/03/26 13:06:11;;;;;;;;;;;;;;;23.66;22.55;101392.69;4824047;29;20424;-72
2021/03/26 13:08:56;;;;;;;;;;;;;;;25.12;20.78;101400.75;4824174;29;20294;-74
2021/03/26 13:11:28;;;;;;;;;;;;;;;26.78;19.17;101402.56;4824683;29;20252;-74
2021/03/26 13:14:04;;;;;;;;;;;;;;;26.59;19.00;101383.41;4824232;29;20259;-74
2021/03/26 13:16:41;;;;;;;;;;;;;;;27.25;18.81;101395.81;4824528;29;19944;-75
2021/03/26 13:19:26;;;;;;;;;;;;;;;26.79;19.13;101392.56;4823989;29;20375;-74
2021/03/26 13:22:02;;;;;;;;;;;;;;;27.64;18.17;101382.44;4823278;29;20393;-74
2021/03/26 13:24:36;;;;;;;;;;;;;;;27.65;18.46;101387.72;4824769;29;20363;-74
2021/03/26 13:27:29;;;;;;;;;;;;;;;26.59;19.87;101377.97;4837865;29;20309;-74
2021/03/26 13:30:21;;;;;;;;;;;;;;;25.68;20.75;101389.09;4824530;29;20271;-74
2021/03/26 13:33:06;;;;;;;;;;;;;;;26.44;19.59;101377.44;4821493;29;19972;-73
2021/03/26 13:35:38;;;;;;;;;;;;;;;26.57;19.95;101378.13;4823735;29;19936;-74
2021/03/26 13:38:20;;;;;;;;;;;;;;;26.37;20.07;101374.41;4823973;29;20301;-74
2021/03/26 13:40:53;;;;;;;;;;;;;;;25.41;21.67;101389.47;4824013;29;20462;-74
2021/03/26 13:43:25;;;;;;;;;;;;;;;25.35;21.80;101378.16;4823788;29;20402;-74
2021/03/26 13:45:57;;;;;;;;;;;;;;;25.35;21.63;101375.44;4824270;29;20383;-74
2021/03/26 13:48:29;;;;;;;;;;;;;;;24.78;22.61;101369.09;4823676;29;20371;-74
2021/03/26 13:51:01;;;;;;;;;;;;;;;24.02;23.32;101380.19;4823735;29;20487;-73
2021/03/26 13:53:35;;;;;;;;;;;;;;;24.18;23.84;101369.09;4822599;29;20356;-73
2021/03/26 13:56:11;;;;;;;;;;;;;;;23.42;24.50;101372.88;4823896;29;20399;-74
2021/03/26 13:58:44;;;;;;;;;;;;;;;22.98;25.05;101373.22;4823654;29;19997;-73
2021/03/26 14:01:21;;;;;;;;;;;;;;;22.50;25.94;101371.09;4823598;29;20408;-73
2021/03/26 14:04:14;;;;;;;;;;;;;;;22.37;25.81;101364.81;4823324;29;20382;-73
2021/03/26 14:06:47;;;;;;;;;;;;;;;22.07;26.30;101359.63;4815069;29;19940;-73
2021/03/26 14:09:23;;;;;;;;;;;;;;;21.33;27.47;101368.75;4823847;29;19997;-73
2021/03/26 14:12:00;;;;;;;;;;;;;;;21.37;27.31;101359.53;4823963;29;20251;-73
2021/03/26 14:14:31;;;;;;;;;;;;;;;;;;4821873;29;19936;-73
2021/03/26 14:17:01;;;;;;;;;;;;;;;20.90;27.75;101369.59;4823332;29;19933;-72
2021/03/26 14:19:37;;;;;;;;;;;;;;;20.70;28.23;101367.25;4786036;29;20358;-73
2021/03/26 14:22:23;;;;;;;;;;;;;;;20.05;28.84;101368.31;4787721;29;20346;-73
2021/03/26 14:25:02;;;;;;;;;;;;;;;19.84;29.54;101357.00;4787156;29;19930;-72
2021/03/26 14:27:48;;;;;;;;;;;;;;;20.12;29.37;101364.34;4787110;30;20012;-73
2021/03/26 14:30:23;;;;;;;;;;;;;;;20.01;29.74;101353.34;4786980;29;19983;-72
2021/03/26 14:33:02;;;;;;;;;;;;;;;19.76;29.99;101346.66;4786885;30;20056;-73
2021/03/26 14:35:35;;;;;;;;;;;;;;;19.96;29.78;101348.25;4787366;29;19937;-73
2021/03/26 14:38:12;;;;;;;;;;;;;;;19.80;30.08;101348.22;4787190;29;19930;-72
2021/03/26 14:40:43;;;;;;;;;;;;;;;20.02;29.91;101347.88;4787420;30;20094;-73
2021/03/26 14:43:15;;;;;;;;;;;;;;;20.26;29.69;101354.63;4800289;29;20323;-72
2021/03/26 14:45:48;;;;;;;;;;;;;;;20.16;30.37;101338.16;4786798;29;20261;-72
2021/03/26 14:48:21;;;;;;;;;;;;;;;19.94;30.41;101342.09;4787083;29;19937;-72
2021/03/26 14:50:59;;;;;;;;;;;;;;;19.77;30.58;101343.03;4787151;29;20300;-72
2021/03/26 14:53:30;;;;;;;;;;;;;;;19.65;30.63;101333.00;4787062;29;20343;-72
2021/03/26 14:56:03;;;;;;;;;;;;;;;19.85;30.39;101329.22;4787220;29;20013;-73
2021/03/26 14:58:40;;;;;;;;;;;;;;;19.28;30.58;101338.59;4785998;30;19971;-72
2021/03/26 15:01:13;;;;;;;;;;;;;;;19.14;30.57;101338.47;4786909;29;20463;-72
2021/03/26 15:03:51;;;;;;;;;;;;;;;19.19;30.61;101334.59;4787214;29;20371;-72
2021/03/26 15:06:24;;;;;;;;;;;;;;;19.03;31.02;101333.69;4787314;29;19933;-72
2021/03/26 15:09:05;;;;;;;;;;;;;;;19.56;30.50;101339.75;4786883;30;20049;-72
2021/03/26 15:11:59;;;;;;;;;;;;;;;19.41;30.50;101334.28;4786990;29;19969;-72
2021/03/26 15:14:36;;;;;;;;;;;;;;;19.11;30.73;101322.53;4767880;29;20467;-72